sensor_id;sensor_type;location;lat;lon;timestamp;P1;durP1;ratioP1;P2;durP2;ratioP2
63945;SDS011;50122;56.330;43.838;2022-09-17T00:01:17;14.05;;;11.02;;
63945;SDS011;50122;56.330;43.838;2022-09-17T00:03:52;13.50;;;11.13;;
63945;SDS011;50122;56.330;43.838;2022-09-17T00:06:21;13.30;;;10.07;;
63945;SDS011;50122;56.330;43.838;2022-09-17T00:08:52;12.55;;;10.10;;
63945;SDS011;50122;56.330;43.838;2022-09-17T00:11:21;15.77;;;11.65;;
63945;SDS011;50122;56.330;43.838;2022-09-17T00:13:50;14.27;;;11.48;;
63945;SDS011;50122;56.330;43.838;2022-09-17T00:16:22;15.68;;;11.65;;
63945;SDS011;50122;56.330;43.838;2022-09-17T00:18:52;11.98;;;10.32;;
63945;SDS011;50122;56.330;43.838;2022-09-17T00:21:19;14.98;;;11.77;;
63945;SDS011;50122;56.330;43.838;2022-09-17T00:23:47;15.95;;;12.55;;
63945;SDS011;50122;56.330;43.838;2022-09-17T00:26:13;13.00;;;11.25;;
63945;SDS011;50122;56.330;43.838;2022-09-17T00:28:40;13.75;;;11.52;;
63945;SDS011;50122;56.330;43.838;2022-09-17T00:31:10;13.07;;;11.30;;
63945;SDS011;50122;56.330;43.838;2022-09-17T00:33:37;15.65;;;12.70;;
63945;SDS011;50122;56.330;43.838;2022-09-17T00:36:04;15.77;;;12.63;;
63945;SDS011;50122;56.330;43.838;2022-09-17T00:38:31;15.82;;;12.57;;
63945;SDS011;50122;56.330;43.838;2022-09-17T00:40:59;14.02;;;11.52;;
63945;SDS011;50122;56.330;43.838;2022-09-17T00:43:36;14.32;;;11.55;;
63945;SDS011;50122;56.330;43.838;2022-09-17T00:48:52;13.35;;;10.45;;
63945;SDS011;50122;56.330;43.838;2022-09-17T00:51:21;15.43;;;10.98;;
63945;SDS011;50122;56.330;43.838;2022-09-17T00:53:54;14.73;;;11.38;;
63945;SDS011;50122;56.330;43.838;2022-09-17T00:56:22;15.90;;;11.98;;
63945;SDS011;50122;56.330;43.838;2022-09-17T00:58:55;15.13;;;11.55;;
63945;SDS011;50122;56.330;43.838;2022-09-17T01:01:23;14.13;;;11.10;;
63945;SDS011;50122;56.330;43.838;2022-09-17T01:03:50;15.27;;;10.98;;
63945;SDS011;50122;56.330;43.838;2022-09-17T01:06:31;16.85;;;11.25;;
63945;SDS011;50122;56.330;43.838;2022-09-17T01:09:24;16.25;;;12.23;;
63945;SDS011;50122;56.330;43.838;2022-09-17T01:44:55;13.48;;;9.27;;
63945;SDS011;50122;56.330;43.838;2022-09-17T01:50:02;13.25;;;9.70;;
63945;SDS011;50122;56.330;43.838;2022-09-17T01:52:35;13.65;;;9.75;;
63945;SDS011;50122;56.330;43.838;2022-09-17T01:55:07;12.55;;;8.77;;
63945;SDS011;50122;56.330;43.838;2022-09-17T02:00:07;12.73;;;8.57;;
63945;SDS011;50122;56.330;43.838;2022-09-17T02:05:23;12.02;;;8.75;;
63945;SDS011;50122;56.330;43.838;2022-09-17T02:08:02;12.27;;;9.55;;
63945;SDS011;50122;56.330;43.838;2022-09-17T02:10:33;12.07;;;9.00;;
63945;SDS011;50122;56.330;43.838;2022-09-17T02:13:07;10.73;;;8.23;;
63945;SDS011;50122;56.330;43.838;2022-09-17T02:15:42;12.27;;;8.37;;
63945;SDS011;50122;56.330;43.838;2022-09-17T02:20:56;10.75;;;7.80;;
63945;SDS011;50122;56.330;43.838;2022-09-17T02:23:33;10.10;;;7.30;;
63945;SDS011;50122;56.330;43.838;2022-09-17T02:26:09;10.07;;;7.80;;
63945;SDS011;50122;56.330;43.838;2022-09-17T02:31:20;13.82;;;8.43;;
63945;SDS011;50122;56.330;43.838;2022-09-17T02:33:49;11.38;;;8.23;;
63945;SDS011;50122;56.330;43.838;2022-09-17T02:36:20;12.07;;;8.20;;
63945;SDS011;50122;56.330;43.838;2022-09-17T02:38:47;12.82;;;9.00;;
63945;SDS011;50122;56.330;43.838;2022-09-17T02:41:15;11.23;;;7.80;;
63945;SDS011;50122;56.330;43.838;2022-09-17T02:43:57;11.98;;;7.82;;
63945;SDS011;50122;56.330;43.838;2022-09-17T02:51:54;9.52;;;7.10;;
63945;SDS011;50122;56.330;43.838;2022-09-17T03:00:11;10.13;;;7.47;;
63945;SDS011;50122;56.330;43.838;2022-09-17T03:02:45;9.48;;;6.97;;
63945;SDS011;50122;56.330;43.838;2022-09-17T03:05:17;11.13;;;7.18;;
63945;SDS011;50122;56.330;43.838;2022-09-17T03:07:45;10.63;;;7.00;;
63945;SDS011;50122;56.330;43.838;2022-09-17T03:10:12;9.27;;;7.00;;
63945;SDS011;50122;56.330;43.838;2022-09-17T03:12:39;9.23;;;7.00;;
63945;SDS011;50122;56.330;43.838;2022-09-17T03:15:06;8.82;;;7.00;;
63945;SDS011;50122;56.330;43.838;2022-09-17T03:17:33;8.82;;;7.00;;
63945;SDS011;50122;56.330;43.838;2022-09-17T03:20:00;8.95;;;7.05;;
63945;SDS011;50122;56.330;43.838;2022-09-17T03:22:27;11.27;;;7.03;;
63945;SDS011;50122;56.330;43.838;2022-09-17T03:24:54;8.65;;;6.22;;
63945;SDS011;50122;56.330;43.838;2022-09-17T03:27:21;8.55;;;6.82;;
63945;SDS011;50122;56.330;43.838;2022-09-17T03:29:49;10.98;;;7.30;;
63945;SDS011;50122;56.330;43.838;2022-09-17T03:32:16;10.70;;;7.82;;
63945;SDS011;50122;56.330;43.838;2022-09-17T03:34:43;9.73;;;7.63;;
63945;SDS011;50122;56.330;43.838;2022-09-17T03:37:10;9.32;;;7.30;;
63945;SDS011;50122;56.330;43.838;2022-09-17T03:39:37;10.00;;;8.10;;
63945;SDS011;50122;56.330;43.838;2022-09-17T03:42:04;10.63;;;7.90;;
63945;SDS011;50122;56.330;43.838;2022-09-17T03:44:30;10.40;;;8.60;;
63945;SDS011;50122;56.330;43.838;2022-09-17T03:46:57;11.80;;;8.50;;
63945;SDS011;50122;56.330;43.838;2022-09-17T03:49:24;11.85;;;8.90;;
63945;SDS011;50122;56.330;43.838;2022-09-17T03:51:51;12.27;;;9.35;;
63945;SDS011;50122;56.330;43.838;2022-09-17T03:54:17;13.38;;;9.68;;
63945;SDS011;50122;56.330;43.838;2022-09-17T03:56:44;15.40;;;10.50;;
63945;SDS011;50122;56.330;43.838;2022-09-17T03:59:11;11.63;;;8.48;;
63945;SDS011;50122;56.330;43.838;2022-09-17T04:01:37;11.07;;;7.82;;
63945;SDS011;50122;56.330;43.838;2022-09-17T04:04:04;9.60;;;7.25;;
63945;SDS011;50122;56.330;43.838;2022-09-17T04:06:31;8.90;;;6.43;;
63945;SDS011;50122;56.330;43.838;2022-09-17T04:08:58;10.75;;;7.90;;
63945;SDS011;50122;56.330;43.838;2022-09-17T04:11:26;10.63;;;7.60;;
63945;SDS011;50122;56.330;43.838;2022-09-17T04:13:52;10.05;;;7.20;;
63945;SDS011;50122;56.330;43.838;2022-09-17T04:16:19;9.68;;;6.68;;
63945;SDS011;50122;56.330;43.838;2022-09-17T04:18:46;10.57;;;5.53;;
63945;SDS011;50122;56.330;43.838;2022-09-17T04:21:12;8.15;;;6.20;;
63945;SDS011;50122;56.330;43.838;2022-09-17T04:23:39;9.20;;;5.55;;
63945;SDS011;50122;56.330;43.838;2022-09-17T04:26:06;8.30;;;6.10;;
63945;SDS011;50122;56.330;43.838;2022-09-17T04:28:32;9.00;;;6.20;;
63945;SDS011;50122;56.330;43.838;2022-09-17T04:30:59;8.27;;;5.20;;
63945;SDS011;50122;56.330;43.838;2022-09-17T04:33:26;8.98;;;5.68;;
63945;SDS011;50122;56.330;43.838;2022-09-17T04:35:52;8.65;;;6.10;;
63945;SDS011;50122;56.330;43.838;2022-09-17T04:38:19;8.25;;;6.10;;
63945;SDS011;50122;56.330;43.838;2022-09-17T04:40:47;8.18;;;5.20;;
63945;SDS011;50122;56.330;43.838;2022-09-17T04:43:17;9.02;;;5.28;;
63945;SDS011;50122;56.330;43.838;2022-09-17T04:45:44;8.63;;;5.93;;
63945;SDS011;50122;56.330;43.838;2022-09-17T04:48:12;7.15;;;4.00;;
63945;SDS011;50122;56.330;43.838;2022-09-17T04:50:39;8.55;;;5.70;;
63945;SDS011;50122;56.330;43.838;2022-09-17T04:53:06;8.02;;;5.25;;
63945;SDS011;50122;56.330;43.838;2022-09-17T04:55:33;8.43;;;5.45;;
63945;SDS011;50122;56.330;43.838;2022-09-17T04:58:00;6.93;;;5.00;;
63945;SDS011;50122;56.330;43.838;2022-09-17T05:00:26;7.78;;;5.22;;
63945;SDS011;50122;56.330;43.838;2022-09-17T05:02:53;7.90;;;4.63;;
63945;SDS011;50122;56.330;43.838;2022-09-17T05:05:22;9.00;;;5.82;;
63945;SDS011;50122;56.330;43.838;2022-09-17T05:07:49;9.40;;;5.00;;
63945;SDS011;50122;56.330;43.838;2022-09-17T05:10:16;7.50;;;5.32;;
63945;SDS011;50122;56.330;43.838;2022-09-17T05:12:51;7.85;;;5.28;;
63945;SDS011;50122;56.330;43.838;2022-09-17T05:15:20;5.70;;;4.07;;
63945;SDS011;50122;56.330;43.838;2022-09-17T05:17:48;6.32;;;4.70;;
63945;SDS011;50122;56.330;43.838;2022-09-17T05:20:15;7.43;;;4.90;;
63945;SDS011;50122;56.330;43.838;2022-09-17T05:22:42;8.30;;;5.65;;
63945;SDS011;50122;56.330;43.838;2022-09-17T05:25:11;7.07;;;5.13;;
63945;SDS011;50122;56.330;43.838;2022-09-17T05:27:38;6.30;;;4.00;;
63945;SDS011;50122;56.330;43.838;2022-09-17T05:30:05;7.45;;;5.38;;
63945;SDS011;50122;56.330;43.838;2022-09-17T05:32:34;6.72;;;4.45;;
63945;SDS011;50122;56.330;43.838;2022-09-17T05:35:02;6.18;;;4.63;;
63945;SDS011;50122;56.330;43.838;2022-09-17T05:37:31;5.70;;;4.00;;
63945;SDS011;50122;56.330;43.838;2022-09-17T05:39:58;6.18;;;4.22;;
63945;SDS011;50122;56.330;43.838;2022-09-17T05:42:24;6.10;;;3.83;;
63945;SDS011;50122;56.330;43.838;2022-09-17T05:44:55;5.28;;;3.08;;
63945;SDS011;50122;56.330;43.838;2022-09-17T05:47:22;5.93;;;4.05;;
63945;SDS011;50122;56.330;43.838;2022-09-17T05:49:48;6.55;;;3.80;;
63945;SDS011;50122;56.330;43.838;2022-09-17T05:52:15;6.90;;;4.28;;
63945;SDS011;50122;56.330;43.838;2022-09-17T05:54:41;5.68;;;4.07;;
63945;SDS011;50122;56.330;43.838;2022-09-17T05:57:08;5.68;;;3.95;;
63945;SDS011;50122;56.330;43.838;2022-09-17T05:59:35;4.13;;;2.63;;
63945;SDS011;50122;56.330;43.838;2022-09-17T06:02:02;5.85;;;3.65;;
63945;SDS011;50122;56.330;43.838;2022-09-17T06:04:29;4.28;;;2.80;;
63945;SDS011;50122;56.330;43.838;2022-09-17T06:07:02;6.07;;;2.95;;
63945;SDS011;50122;56.330;43.838;2022-09-17T06:09:36;5.88;;;3.90;;
63945;SDS011;50122;56.330;43.838;2022-09-17T06:12:03;6.13;;;3.63;;
63945;SDS011;50122;56.330;43.838;2022-09-17T06:14:30;4.70;;;3.10;;
63945;SDS011;50122;56.330;43.838;2022-09-17T06:16:57;5.65;;;3.33;;
63945;SDS011;50122;56.330;43.838;2022-09-17T06:19:23;4.55;;;2.72;;
63945;SDS011;50122;56.330;43.838;2022-09-17T06:21:50;4.05;;;2.45;;
63945;SDS011;50122;56.330;43.838;2022-09-17T06:24:17;5.97;;;3.08;;
63945;SDS011;50122;56.330;43.838;2022-09-17T06:26:43;6.28;;;3.10;;
63945;SDS011;50122;56.330;43.838;2022-09-17T06:29:10;4.35;;;2.95;;
63945;SDS011;50122;56.330;43.838;2022-09-17T06:31:40;3.95;;;2.15;;
63945;SDS011;50122;56.330;43.838;2022-09-17T06:34:10;4.55;;;2.53;;
63945;SDS011;50122;56.330;43.838;2022-09-17T06:36:37;4.40;;;2.33;;
63945;SDS011;50122;56.330;43.838;2022-09-17T06:39:04;4.18;;;2.50;;
63945;SDS011;50122;56.330;43.838;2022-09-17T06:41:31;4.85;;;2.90;;
63945;SDS011;50122;56.330;43.838;2022-09-17T06:43:59;5.32;;;3.28;;
63945;SDS011;50122;56.330;43.838;2022-09-17T06:46:26;4.57;;;2.50;;
63945;SDS011;50122;56.330;43.838;2022-09-17T06:48:53;3.83;;;1.98;;
63945;SDS011;50122;56.330;43.838;2022-09-17T06:51:20;4.03;;;2.40;;
63945;SDS011;50122;56.330;43.838;2022-09-17T06:53:47;4.30;;;2.20;;
63945;SDS011;50122;56.330;43.838;2022-09-17T06:56:14;4.38;;;2.30;;
63945;SDS011;50122;56.330;43.838;2022-09-17T06:58:41;3.45;;;2.10;;
63945;SDS011;50122;56.330;43.838;2022-09-17T07:01:10;2.90;;;1.67;;
63945;SDS011;50122;56.330;43.838;2022-09-17T07:03:37;5.38;;;2.47;;
63945;SDS011;50122;56.330;43.838;2022-09-17T07:06:07;4.13;;;2.63;;
63945;SDS011;50122;56.330;43.838;2022-09-17T07:08:38;5.82;;;2.70;;
63945;SDS011;50122;56.330;43.838;2022-09-17T07:11:05;5.18;;;2.83;;
63945;SDS011;50122;56.330;43.838;2022-09-17T07:13:33;6.65;;;3.05;;
63945;SDS011;50122;56.330;43.838;2022-09-17T07:16:01;4.15;;;2.00;;
63945;SDS011;50122;56.330;43.838;2022-09-17T07:18:30;5.18;;;2.15;;
63945;SDS011;50122;56.330;43.838;2022-09-17T07:20:58;3.92;;;2.25;;
63945;SDS011;50122;56.330;43.838;2022-09-17T07:23:35;3.67;;;2.30;;
63945;SDS011;50122;56.330;43.838;2022-09-17T07:26:03;4.15;;;2.53;;
63945;SDS011;50122;56.330;43.838;2022-09-17T07:28:38;2.80;;;1.88;;
63945;SDS011;50122;56.330;43.838;2022-09-17T07:31:06;3.72;;;2.20;;
63945;SDS011;50122;56.330;43.838;2022-09-17T07:33:39;2.72;;;1.90;;
63945;SDS011;50122;56.330;43.838;2022-09-17T07:36:07;4.32;;;2.30;;
63945;SDS011;50122;56.330;43.838;2022-09-17T07:38:36;6.45;;;2.67;;
63945;SDS011;50122;56.330;43.838;2022-09-17T07:41:11;4.50;;;2.15;;
63945;SDS011;50122;56.330;43.838;2022-09-17T07:43:42;5.47;;;2.20;;
63945;SDS011;50122;56.330;43.838;2022-09-17T07:46:14;4.53;;;2.08;;
63945;SDS011;50122;56.330;43.838;2022-09-17T07:48:42;5.95;;;2.50;;
63945;SDS011;50122;56.330;43.838;2022-09-17T07:51:17;5.30;;;2.05;;
63945;SDS011;50122;56.330;43.838;2022-09-17T07:53:50;6.38;;;3.40;;
63945;SDS011;50122;56.330;43.838;2022-09-17T07:56:18;5.63;;;2.50;;
63945;SDS011;50122;56.330;43.838;2022-09-17T07:58:45;7.43;;;3.45;;
63945;SDS011;50122;56.330;43.838;2022-09-17T08:01:12;3.92;;;1.90;;
63945;SDS011;50122;56.330;43.838;2022-09-17T08:03:46;3.88;;;2.00;;
63945;SDS011;50122;56.330;43.838;2022-09-17T08:06:16;2.42;;;1.58;;
63945;SDS011;50122;56.330;43.838;2022-09-17T08:08:45;4.72;;;2.40;;
63945;SDS011;50122;56.330;43.838;2022-09-17T08:11:13;3.85;;;1.80;;
63945;SDS011;50122;56.330;43.838;2022-09-17T08:14:03;4.95;;;2.30;;
63945;SDS011;50122;56.330;43.838;2022-09-17T08:16:30;4.82;;;2.20;;
63945;SDS011;50122;56.330;43.838;2022-09-17T08:18:57;6.82;;;3.08;;
63945;SDS011;50122;56.330;43.838;2022-09-17T08:21:23;6.30;;;2.50;;
63945;SDS011;50122;56.330;43.838;2022-09-17T08:23:50;3.72;;;2.20;;
63945;SDS011;50122;56.330;43.838;2022-09-17T08:26:18;3.88;;;1.98;;
63945;SDS011;50122;56.330;43.838;2022-09-17T08:28:49;4.80;;;2.20;;
63945;SDS011;50122;56.330;43.838;2022-09-17T08:31:20;4.65;;;2.20;;
63945;SDS011;50122;56.330;43.838;2022-09-17T08:33:49;3.30;;;2.00;;
63945;SDS011;50122;56.330;43.838;2022-09-17T08:36:17;5.43;;;2.58;;
63945;SDS011;50122;56.330;43.838;2022-09-17T08:38:44;5.47;;;2.42;;
63945;SDS011;50122;56.330;43.838;2022-09-17T08:46:41;7.45;;;3.95;;
63945;SDS011;50122;56.330;43.838;2022-09-17T08:57:42;13.45;;;3.67;;
63945;SDS011;50122;56.330;43.838;2022-09-17T09:00:19;6.07;;;2.70;;
63945;SDS011;50122;56.330;43.838;2022-09-17T09:03:01;9.90;;;4.20;;
63945;SDS011;50122;56.330;43.838;2022-09-17T09:05:50;3.92;;;1.70;;
63945;SDS011;50122;56.330;43.838;2022-09-17T09:08:21;4.53;;;1.88;;
63945;SDS011;50122;56.330;43.838;2022-09-17T09:10:54;3.20;;;1.67;;
63945;SDS011;50122;56.330;43.838;2022-09-17T09:13:24;4.07;;;1.70;;
63945;SDS011;50122;56.330;43.838;2022-09-17T09:16:02;5.18;;;2.10;;
63945;SDS011;50122;56.330;43.838;2022-09-17T09:18:34;5.00;;;1.65;;
63945;SDS011;50122;56.330;43.838;2022-09-17T09:21:17;2.80;;;1.70;;
63945;SDS011;50122;56.330;43.838;2022-09-17T09:24:08;5.63;;;1.77;;
63945;SDS011;50122;56.330;43.838;2022-09-17T09:26:46;2.53;;;1.67;;
63945;SDS011;50122;56.330;43.838;2022-09-17T09:34:42;2.08;;;1.30;;
63945;SDS011;50122;56.330;43.838;2022-09-17T09:39:51;3.28;;;1.73;;
63945;SDS011;50122;56.330;43.838;2022-09-17T09:42:33;4.38;;;1.90;;
63945;SDS011;50122;56.330;43.838;2022-09-17T09:45:15;17.20;;;8.15;;
63945;SDS011;50122;56.330;43.838;2022-09-17T09:53:39;8.50;;;2.05;;
63945;SDS011;50122;56.330;43.838;2022-09-17T09:58:39;3.95;;;1.83;;
63945;SDS011;50122;56.330;43.838;2022-09-17T10:03:48;6.78;;;2.33;;
63945;SDS011;50122;56.330;43.838;2022-09-17T10:06:17;5.47;;;2.30;;
63945;SDS011;50122;56.330;43.838;2022-09-17T10:11:23;6.50;;;2.10;;
63945;SDS011;50122;56.330;43.838;2022-09-17T10:13:52;3.80;;;1.95;;
63945;SDS011;50122;56.330;43.838;2022-09-17T10:16:20;8.57;;;1.83;;
63945;SDS011;50122;56.330;43.838;2022-09-17T10:18:47;7.60;;;3.67;;
63945;SDS011;50122;56.330;43.838;2022-09-17T10:21:20;4.40;;;2.30;;
63945;SDS011;50122;56.330;43.838;2022-09-17T10:24:16;5.55;;;2.00;;
63945;SDS011;50122;56.330;43.838;2022-09-17T10:27:00;8.95;;;4.43;;
63945;SDS011;50122;56.330;43.838;2022-09-17T10:31:56;13.30;;;6.75;;
63945;SDS011;50122;56.330;43.838;2022-09-17T10:34:25;9.77;;;4.43;;
63945;SDS011;50122;56.330;43.838;2022-09-17T10:36:53;10.70;;;6.82;;
63945;SDS011;50122;56.330;43.838;2022-09-17T10:39:34;9.43;;;5.70;;
63945;SDS011;50122;56.330;43.838;2022-09-17T10:44:37;3.80;;;2.15;;
63945;SDS011;50122;56.330;43.838;2022-09-17T10:47:05;4.55;;;1.67;;
63945;SDS011;50122;56.330;43.838;2022-09-17T10:49:40;4.13;;;1.50;;
63945;SDS011;50122;56.330;43.838;2022-09-17T10:52:10;5.78;;;1.90;;
63945;SDS011;50122;56.330;43.838;2022-09-17T10:57:28;5.55;;;2.10;;
63945;SDS011;50122;56.330;43.838;2022-09-17T11:00:17;8.63;;;2.17;;
63945;SDS011;50122;56.330;43.838;2022-09-17T11:11:22;4.30;;;2.25;;
63945;SDS011;50122;56.330;43.838;2022-09-17T11:20:12;8.55;;;3.13;;
63945;SDS011;50122;56.330;43.838;2022-09-17T11:25:43;7.22;;;3.15;;
63945;SDS011;50122;56.330;43.838;2022-09-17T11:36:23;5.07;;;2.03;;
63945;SDS011;50122;56.330;43.838;2022-09-17T11:38:56;4.22;;;1.75;;
63945;SDS011;50122;56.330;43.838;2022-09-17T11:41:32;2.42;;;1.40;;
63945;SDS011;50122;56.330;43.838;2022-09-17T11:46:43;2.78;;;1.50;;
63945;SDS011;50122;56.330;43.838;2022-09-17T11:49:24;5.28;;;1.67;;
63945;SDS011;50122;56.330;43.838;2022-09-17T11:52:06;7.95;;;4.63;;
63945;SDS011;50122;56.330;43.838;2022-09-17T11:54:42;8.90;;;3.38;;
63945;SDS011;50122;56.330;43.838;2022-09-17T11:57:28;16.63;;;10.15;;
63945;SDS011;50122;56.330;43.838;2022-09-17T12:00:04;11.23;;;4.70;;
63945;SDS011;50122;56.330;43.838;2022-09-17T12:02:46;12.32;;;8.88;;
63945;SDS011;50122;56.330;43.838;2022-09-17T12:05:27;20.48;;;14.23;;
63945;SDS011;50122;56.330;43.838;2022-09-17T12:07:58;10.40;;;6.53;;
63945;SDS011;50122;56.330;43.838;2022-09-17T12:15:45;9.20;;;2.40;;
63945;SDS011;50122;56.330;43.838;2022-09-17T12:21:12;5.38;;;3.28;;
63945;SDS011;50122;56.330;43.838;2022-09-17T12:26:25;8.50;;;3.53;;
63945;SDS011;50122;56.330;43.838;2022-09-17T12:40:41;8.20;;;2.20;;
63945;SDS011;50122;56.330;43.838;2022-09-17T12:44:01;4.10;;;1.90;;
63945;SDS011;50122;56.330;43.838;2022-09-17T12:47:00;4.90;;;2.03;;
63945;SDS011;50122;56.330;43.838;2022-09-17T12:57:48;5.43;;;2.20;;
63945;SDS011;50122;56.330;43.838;2022-09-17T13:00:27;5.43;;;2.55;;
63945;SDS011;50122;56.330;43.838;2022-09-17T13:03:01;10.52;;;4.60;;
63945;SDS011;50122;56.330;43.838;2022-09-17T13:17:03;4.53;;;2.50;;
63945;SDS011;50122;56.330;43.838;2022-09-17T13:19:40;6.10;;;2.83;;
63945;SDS011;50122;56.330;43.838;2022-09-17T13:22:16;5.15;;;2.25;;
63945;SDS011;50122;56.330;43.838;2022-09-17T13:25:00;6.22;;;3.33;;
63945;SDS011;50122;56.330;43.838;2022-09-17T13:27:31;4.82;;;2.70;;
63945;SDS011;50122;56.330;43.838;2022-09-17T13:30:00;9.73;;;6.03;;
63945;SDS011;50122;56.330;43.838;2022-09-17T13:40:27;6.90;;;3.17;;
63945;SDS011;50122;56.330;43.838;2022-09-17T13:45:29;5.72;;;2.83;;
63945;SDS011;50122;56.330;43.838;2022-09-17T13:48:03;38.95;;;30.40;;
63945;SDS011;50122;56.330;43.838;2022-09-17T13:50:40;11.57;;;8.23;;
63945;SDS011;50122;56.330;43.838;2022-09-17T13:58:31;7.60;;;3.05;;
63945;SDS011;50122;56.330;43.838;2022-09-17T14:01:00;7.07;;;3.97;;
63945;SDS011;50122;56.330;43.838;2022-09-17T14:13:48;48.58;;;34.38;;
63945;SDS011;50122;56.330;43.838;2022-09-17T14:24:38;105.78;;;78.00;;
63945;SDS011;50122;56.330;43.838;2022-09-17T14:27:20;55.55;;;37.72;;
63945;SDS011;50122;56.330;43.838;2022-09-17T14:40:41;86.35;;;54.95;;
63945;SDS011;50122;56.330;43.838;2022-09-17T14:43:17;117.90;;;48.70;;
63945;SDS011;50122;56.330;43.838;2022-09-17T14:45:49;67.35;;;35.30;;
63945;SDS011;50122;56.330;43.838;2022-09-17T14:48:18;29.88;;;17.33;;
63945;SDS011;50122;56.330;43.838;2022-09-17T14:53:45;18.67;;;11.30;;
63945;SDS011;50122;56.330;43.838;2022-09-17T14:56:20;16.75;;;9.30;;
63945;SDS011;50122;56.330;43.838;2022-09-17T14:58:49;16.35;;;8.98;;
63945;SDS011;50122;56.330;43.838;2022-09-17T15:01:28;18.17;;;9.50;;
63945;SDS011;50122;56.330;43.838;2022-09-17T15:07:06;25.33;;;15.27;;
63945;SDS011;50122;56.330;43.838;2022-09-17T15:09:37;32.38;;;22.52;;
63945;SDS011;50122;56.330;43.838;2022-09-17T15:12:05;39.30;;;24.92;;
63945;SDS011;50122;56.330;43.838;2022-09-17T15:14:33;30.55;;;18.23;;
63945;SDS011;50122;56.330;43.838;2022-09-17T15:17:03;22.27;;;14.77;;
63945;SDS011;50122;56.330;43.838;2022-09-17T15:22:09;26.33;;;13.70;;
63945;SDS011;50122;56.330;43.838;2022-09-17T15:29:57;23.38;;;15.68;;
63945;SDS011;50122;56.330;43.838;2022-09-17T15:32:24;28.75;;;19.75;;
63945;SDS011;50122;56.330;43.838;2022-09-17T15:37:45;50.50;;;34.53;;
63945;SDS011;50122;56.330;43.838;2022-09-17T15:40:36;46.50;;;30.85;;
63945;SDS011;50122;56.330;43.838;2022-09-17T15:48:53;45.25;;;27.88;;
63945;SDS011;50122;56.330;43.838;2022-09-17T15:51:22;35.30;;;21.98;;
63945;SDS011;50122;56.330;43.838;2022-09-17T15:53:53;31.05;;;17.25;;
63945;SDS011;50122;56.330;43.838;2022-09-17T15:56:30;23.27;;;13.65;;
63945;SDS011;50122;56.330;43.838;2022-09-17T16:09:00;28.75;;;16.73;;
63945;SDS011;50122;56.330;43.838;2022-09-17T16:11:28;39.53;;;21.15;;
63945;SDS011;50122;56.330;43.838;2022-09-17T16:13:59;39.13;;;20.92;;
63945;SDS011;50122;56.330;43.838;2022-09-17T16:16:36;37.20;;;22.25;;
63945;SDS011;50122;56.330;43.838;2022-09-17T16:19:04;37.72;;;21.58;;
63945;SDS011;50122;56.330;43.838;2022-09-17T16:21:31;42.88;;;23.67;;
63945;SDS011;50122;56.330;43.838;2022-09-17T16:23:58;46.58;;;26.02;;
63945;SDS011;50122;56.330;43.838;2022-09-17T16:26:27;42.53;;;25.15;;
63945;SDS011;50122;56.330;43.838;2022-09-17T16:28:58;38.60;;;23.25;;
63945;SDS011;50122;56.330;43.838;2022-09-17T16:31:28;33.92;;;20.48;;
63945;SDS011;50122;56.330;43.838;2022-09-17T16:33:55;31.67;;;19.02;;
63945;SDS011;50122;56.330;43.838;2022-09-17T16:36:22;31.90;;;18.05;;
63945;SDS011;50122;56.330;43.838;2022-09-17T16:38:50;25.15;;;14.75;;
63945;SDS011;50122;56.330;43.838;2022-09-17T16:41:16;27.33;;;14.60;;
63945;SDS011;50122;56.330;43.838;2022-09-17T16:43:44;22.02;;;14.45;;
63945;SDS011;50122;56.330;43.838;2022-09-17T16:46:11;24.20;;;15.30;;
63945;SDS011;50122;56.330;43.838;2022-09-17T16:48:38;21.77;;;13.90;;
63945;SDS011;50122;56.330;43.838;2022-09-17T16:51:09;20.85;;;13.35;;
63945;SDS011;50122;56.330;43.838;2022-09-17T16:53:37;17.10;;;10.75;;
63945;SDS011;50122;56.330;43.838;2022-09-17T16:56:08;19.45;;;11.75;;
63945;SDS011;50122;56.330;43.838;2022-09-17T16:58:36;18.10;;;11.75;;
63945;SDS011;50122;56.330;43.838;2022-09-17T17:03:41;24.77;;;15.40;;
63945;SDS011;50122;56.330;43.838;2022-09-17T17:06:14;51.10;;;25.40;;
63945;SDS011;50122;56.330;43.838;2022-09-17T17:08:42;44.85;;;25.92;;
63945;SDS011;50122;56.330;43.838;2022-09-17T17:11:09;51.33;;;28.10;;
63945;SDS011;50122;56.330;43.838;2022-09-17T17:13:36;28.08;;;17.52;;
63945;SDS011;50122;56.330;43.838;2022-09-17T17:16:06;28.65;;;16.98;;
63945;SDS011;50122;56.330;43.838;2022-09-17T17:18:34;24.95;;;15.20;;
63945;SDS011;50122;56.330;43.838;2022-09-17T17:21:05;29.00;;;15.57;;
63945;SDS011;50122;56.330;43.838;2022-09-17T17:23:36;24.88;;;15.95;;
63945;SDS011;50122;56.330;43.838;2022-09-17T17:26:03;27.23;;;16.70;;
63945;SDS011;50122;56.330;43.838;2022-09-17T17:28:30;23.83;;;14.35;;
63945;SDS011;50122;56.330;43.838;2022-09-17T17:31:02;21.77;;;13.32;;
63945;SDS011;50122;56.330;43.838;2022-09-17T17:33:30;18.77;;;12.80;;
63945;SDS011;50122;56.330;43.838;2022-09-17T17:36:00;17.15;;;10.95;;
63945;SDS011;50122;56.330;43.838;2022-09-17T17:41:05;19.67;;;11.15;;
63945;SDS011;50122;56.330;43.838;2022-09-17T17:43:36;13.95;;;9.73;;
63945;SDS011;50122;56.330;43.838;2022-09-17T17:46:07;15.93;;;9.82;;
63945;SDS011;50122;56.330;43.838;2022-09-17T17:48:35;19.77;;;11.77;;
63945;SDS011;50122;56.330;43.838;2022-09-17T17:51:03;20.33;;;13.68;;
63945;SDS011;50122;56.330;43.838;2022-09-17T17:53:32;21.40;;;12.95;;
63945;SDS011;50122;56.330;43.838;2022-09-17T17:56:00;20.38;;;12.63;;
63945;SDS011;50122;56.330;43.838;2022-09-17T17:58:31;20.80;;;13.27;;
63945;SDS011;50122;56.330;43.838;2022-09-17T18:06:15;23.70;;;12.57;;
63945;SDS011;50122;56.330;43.838;2022-09-17T18:08:42;17.95;;;11.07;;
63945;SDS011;50122;56.330;43.838;2022-09-17T18:11:09;18.58;;;11.32;;
63945;SDS011;50122;56.330;43.838;2022-09-17T18:13:37;20.98;;;11.80;;
63945;SDS011;50122;56.330;43.838;2022-09-17T18:16:05;21.70;;;11.57;;
63945;SDS011;50122;56.330;43.838;2022-09-17T18:18:34;19.42;;;10.48;;
63945;SDS011;50122;56.330;43.838;2022-09-17T18:21:11;17.67;;;9.88;;
63945;SDS011;50122;56.330;43.838;2022-09-17T18:23:42;19.77;;;9.65;;
63945;SDS011;50122;56.330;43.838;2022-09-17T18:26:12;18.33;;;8.90;;
63945;SDS011;50122;56.330;43.838;2022-09-17T18:28:41;17.92;;;9.15;;
63945;SDS011;50122;56.330;43.838;2022-09-17T18:31:21;15.38;;;9.20;;
63945;SDS011;50122;56.330;43.838;2022-09-17T18:33:59;15.07;;;8.20;;
63945;SDS011;50122;56.330;43.838;2022-09-17T18:36:35;16.75;;;7.90;;
63945;SDS011;50122;56.330;43.838;2022-09-17T18:39:04;14.40;;;7.63;;
63945;SDS011;50122;56.330;43.838;2022-09-17T18:41:52;14.43;;;7.00;;
63945;SDS011;50122;56.330;43.838;2022-09-17T18:44:21;12.45;;;6.85;;
63945;SDS011;50122;56.330;43.838;2022-09-17T18:46:48;12.30;;;6.75;;
63945;SDS011;50122;56.330;43.838;2022-09-17T18:49:16;11.95;;;7.05;;
63945;SDS011;50122;56.330;43.838;2022-09-17T18:51:43;14.00;;;7.53;;
63945;SDS011;50122;56.330;43.838;2022-09-17T18:54:10;12.73;;;7.35;;
63945;SDS011;50122;56.330;43.838;2022-09-17T18:56:40;13.10;;;7.80;;
63945;SDS011;50122;56.330;43.838;2022-09-17T18:59:07;18.65;;;8.38;;
63945;SDS011;50122;56.330;43.838;2022-09-17T19:01:34;12.07;;;7.22;;
63945;SDS011;50122;56.330;43.838;2022-09-17T19:04:01;14.75;;;8.02;;
63945;SDS011;50122;56.330;43.838;2022-09-17T19:06:29;14.25;;;7.85;;